Latest Weather Observations for Lord Howe Island Windy Point

IDN60801

Issued at 1:22 am EDT Thursday 30 January 2020 (issued every 10 minutes, with the page automatically refreshed every 10 minutes)

About weather observations | Map of weather stations | Latest weather observations for NSW | Other Formats
Station Details ID: 200715 Name: LORD HOWE ISLAND WINDY POINT Lat: -31.54 Lon: 159.07 Height: 4.0 m
Data from the previous 72 hours. | See also: Recent months at Lord Howe Island Windy Point
Date/Time
EDT
Temp
°C
App
Temp
°C
Dew
Point
°C
Rel
Hum
%
Delta-T
°C
Wind Press
QNH
hPa
Press
MSL
hPa
Rain since
9am
mm
Dir  Spd
km/h
Gust
km/h
Spd
kts
Gust
kts
30/01:00am - - - - - CALM 0 0 0 0 - - -
30/12:30am - - - - - CALM 0 0 0 0 - - -
30/12:00am - - - - - NE 6 7 3 4 - - -
 
Date/Time
EDT
Temp
°C
App
Temp
°C
Dew
Point
°C
Rel
Hum
%
Delta-T
°C
Wind Press
QNH
hPa
Press
MSL
hPa
Rain since
9am
mm
Dir  Spd
km/h
Gust
km/h
Spd
kts
Gust
kts
29/11:30pm - - - - - CALM 0 0 0 0 - - -
29/11:00pm - - - - - CALM 0 0 0 0 - - -
29/10:30pm - - - - - CALM 0 0 0 0 - - -
29/10:00pm - - - - - CALM 0 0 0 0 - - -
29/09:30pm - - - - - CALM 0 0 0 0 - - -
29/09:00pm - - - - - CALM 0 0 0 0 - - -
29/08:30pm - - - - - ENE 4 7 2 4 - - -
29/08:00pm - - - - - CALM 0 0 0 0 - - -
29/07:30pm - - - - - NNE 6 9 3 5 - - -
29/07:00pm - - - - - NE 7 9 4 5 - - -
29/06:30pm - - - - - E 7 9 4 5 - - -
29/06:00pm - - - - - ENE 11 15 6 8 - - -
29/05:30pm - - - - - WSW 2 9 1 5 - - -
29/05:00pm - - - - - SSE 2 7 1 4 - - -
29/04:30pm - - - - - CALM 0 0 0 0 - - -
29/04:00pm - - - - - CALM 0 0 0 0 - - -
29/03:30pm - - - - - CALM 0 0 0 0 - - -
29/03:00pm - - - - - SE 4 15 2 8 - - -
29/02:30pm - - - - - SW 6 7 3 4 - - -
29/02:00pm - - - - - SW 7 9 4 5 - - -
29/01:30pm - - - - - SW 7 9 4 5 - - -
29/01:00pm - - - - - WSW 6 7 3 4 - - -
29/12:30pm - - - - - CALM 0 2 0 1 - - -
29/12:00pm - - - - - W 2 7 1 4 - - -
29/11:30am - - - - - CALM 0 7 0 4 - - -
29/11:00am - - - - - CALM 0 0 0 0 - - -
29/10:30am - - - - - SSW 2 7 1 4 - - -
29/10:00am - - - - - WSW 6 7 3 4 - - -
29/09:30am - - - - - SSW 6 7 3 4 - - -
29/09:00am - - - - - SSW 7 9 4 5 - - -
29/08:30am - - - - - SW 9 13 5 7 - - -
29/08:00am - - - - - SW 9 11 5 6 - - -
29/07:30am - - - - - SW 7 11 4 6 - - -
29/07:00am - - - - - WSW 11 13 6 7 - - -
29/06:30am - - - - - SW 13 17 7 9 - - -
29/06:00am - - - - - WSW 15 17 8 9 - - -
29/05:30am - - - - - WSW 15 19 8 10 - - -
29/05:00am - - - - - NW 7 9 4 5 - - -
29/04:30am - - - - - NNW 6 9 3 5 - - -
29/04:00am - - - - - NW 2 7 1 4 - - -
29/03:30am - - - - - NNW 7 11 4 6 - - -
29/03:00am - - - - - NW 6 9 3 5 - - -
29/02:30am - - - - - NNW 7 13 4 7 - - -
29/02:00am - - - - - NNW 7 11 4 6 - - -
29/01:30am - - - - - N 6 9 3 5 - - -
29/01:00am - - - - - N 4 9 2 5 - - -
29/12:30am - - - - - NNE 4 7 2 4 - - -
29/12:00am - - - - - NNE 7 11 4 6 - - -
 
Date/Time
EDT
Temp
°C
App
Temp
°C
Dew
Point
°C
Rel
Hum
%
Delta-T
°C
Wind Press
QNH
hPa
Press
MSL
hPa
Rain since
9am
mm
Dir  Spd
km/h
Gust
km/h
Spd
kts
Gust
kts
28/11:30pm - - - - - NNE 7 13 4 7 - - -
28/11:00pm - - - - - NNE 9 11 5 6 - - -
28/10:30pm - - - - - N 6 7 3 4 - - -
28/10:00pm - - - - - NNE 7 11 4 6 - - -
28/09:30pm - - - - - NE 9 20 5 11 - - -
28/09:00pm - - - - - NNE 9 17 5 9 - - -
28/08:30pm - - - - - NNE 7 15 4 8 - - -
28/08:00pm - - - - - NE 7 9 4 5 - - -
28/07:30pm - - - - - NNE 6 7 3 4 - - -
28/07:00pm - - - - - ENE 9 13 5 7 - - -
28/06:30pm - - - - - NE 9 11 5 6 - - -
28/06:00pm - - - - - E 7 11 4 6 - - -
28/05:30pm - - - - - E 13 17 7 9 - - -
28/05:00pm - - - - - ENE 17 22 9 12 - - -
28/04:30pm - - - - - ENE 15 20 8 11 - - -
28/04:00pm - - - - - ENE 17 22 9 12 - - -
28/03:30pm - - - - - ENE 15 20 8 11 - - -
28/03:00pm - - - - - ENE 17 20 9 11 - - -
28/02:30pm - - - - - E 13 20 7 11 - - -
28/02:00pm - - - - - ENE 15 20 8 11 - - -
28/01:30pm - - - - - E 17 20 9 11 - - -
28/01:00pm - - - - - ENE 17 20 9 11 - - -
28/12:30pm - - - - - ENE 15 20 8 11 - - -
28/12:00pm - - - - - E 15 19 8 10 - - -
28/11:30am - - - - - E 13 19 7 10 - - -
28/11:00am - - - - - E 13 17 7 9 - - -
28/10:30am - - - - - E 15 20 8 11 - - -
28/10:00am - - - - - ENE 13 20 7 11 - - -
28/09:30am - - - - - E 13 22 7 12 - - -
28/09:00am - - - - - E 15 20 8 11 - - -
28/08:30am - - - - - E 19 26 10 14 - - -
28/08:00am - - - - - ENE 17 22 9 12 - - -
28/07:30am - - - - - ENE 17 22 9 12 - - -
28/07:00am - - - - - ENE 15 28 8 15 - - -
28/06:30am - - - - - ENE 17 24 9 13 - - -
28/06:00am - - - - - ENE 19 24 10 13 - - -
28/05:30am - - - - - ENE 17 20 9 11 - - -
28/05:00am - - - - - ENE 19 28 10 15 - - -
28/04:30am - - - - - ENE 17 22 9 12 - - -
28/04:00am - - - - - ENE 15 24 8 13 - - -
28/03:30am - - - - - ENE 17 26 9 14 - - -
28/03:00am - - - - - ENE 17 26 9 14 - - -
28/02:30am - - - - - ENE 15 24 8 13 - - -
28/02:00am - - - - - ENE 15 22 8 12 - - -
28/01:30am - - - - - ENE 19 30 10 16 - - -
28/01:00am - - - - - ENE 20 28 11 15 - - -
28/12:30am - - - - - ENE 20 26 11 14 - - -
28/12:00am - - - - - ENE 22 30 12 16 - - -
 
Date/Time
EDT
Temp
°C
App
Temp
°C
Dew
Point
°C
Rel
Hum
%
Delta-T
°C
Wind Press
QNH
hPa
Press
MSL
hPa
Rain since
9am
mm
Dir  Spd
km/h
Gust
km/h
Spd
kts
Gust
kts
27/11:30pm - - - - - ENE 17 32 9 17 - - -
27/11:00pm - - - - - ENE 20 35 11 19 - - -
27/10:30pm - - - - - ENE 20 33 11 18 - - -
27/10:00pm - - - - - ENE 20 26 11 14 - - -
27/09:30pm - - - - - ENE 20 26 11 14 - - -
27/09:00pm - - - - - ENE 19 26 10 14 - - -
27/08:30pm - - - - - ENE 17 24 9 13 - - -
27/08:00pm - - - - - ENE 17 28 9 15 - - -
27/07:30pm - - - - - ENE 19 24 10 13 - - -
27/07:00pm - - - - - ENE 19 26 10 14 - - -
27/06:30pm - - - - - ENE 20 26 11 14 - - -
27/06:00pm - - - - - E 17 20 9 11 - - -
27/05:30pm - - - - - ENE 20 24 11 13 - - -
27/05:00pm - - - - - ENE 22 26 12 14 - - -
27/04:30pm - - - - - ENE 19 22 10 12 - - -
27/04:00pm - - - - - ENE 19 22 10 12 - - -
27/03:30pm - - - - - ENE 20 26 11 14 - - -
27/03:00pm - - - - - ENE 19 22 10 12 - - -
27/02:30pm - - - - - ENE 20 24 11 13 - - -
27/02:00pm - - - - - ENE 20 24 11 13 - - -
27/01:30pm - - - - - ENE 20 26 11 14 - - -
27/01:00pm - - - - - ENE 20 28 11 15 - - -
27/12:30pm - - - - - ENE 20 26 11 14 - - -
27/12:00pm - - - - - ENE 19 26 10 14 - - -
27/11:30am - - - - - E 22 28 12 15 - - -
27/11:00am - - - - - E 20 30 11 16 - - -
27/10:30am - - - - - ENE 19 24 10 13 - - -
27/10:00am - - - - - E 19 22 10 12 - - -
27/09:30am - - - - - ENE 17 22 9 12 - - -
27/09:00am - - - - - E 17 22 9 12 - - -
27/08:30am - - - - - E 17 24 9 13 - - -
27/08:00am - - - - - NE 9 17 5 9 - - -
27/07:30am - - - - - NNE 7 13 4 7 - - -
27/07:00am - - - - - NE 9 15 5 8 - - -
27/06:30am - - - - - ENE 9 20 5 11 - - -
27/06:00am - - - - - NNE 9 15 5 8 - - -
27/05:30am - - - - - ENE 9 13 5 7 - - -
27/05:00am - - - - - NNE 11 26 6 14 - - -
27/04:30am - - - - - NNE 13 20 7 11 - - -
27/04:00am - - - - - NE 11 20 6 11 - - -
27/03:30am - - - - - NNE 13 28 7 15 - - -
27/03:00am - - - - - NNE 15 28 8 15 - - -
27/02:30am - - - - - NNE 13 28 7 15 - - -
27/02:00am - - - - - N 13 26 7 14 - - -
27/01:30am - - - - - ENE 9 17 5 9 - - -

Other formats

Comma delimited format used in spreadsheet applications
http://www.bom.gov.au/fwo/IDN60801/IDN60801.95995.axf

JavaScript Object Notation format (JSON) in row-major order
http://www.bom.gov.au/fwo/IDN60801/IDN60801.95995.json

Data quality

Most of these data are generated automatically and are frequently updated. Quality checks on data are not normally performed. It is possible for incorrect values to appear. Refer to information at About Latest Weather Observations and please check the disclaimer before using these data.